Time;durP1;ratioP1;P1;durP2;ratioP2;P2;SDS_P1;SDS_P2;PMS_P1;PMS_P2;Temp;Humidity;BMP_temperature;BMP_pressure;BME280_temperature;BME280_humidity;BME280_pressure;Samples;Min_cycle;Max_cycle;Signal;HPM_P1;HPM_P2
2020/12/06 00:00:11;;;;;;;19.37;14.30;;;4.30;99.90;;;;;;5093063;28;20197;-71
2020/12/06 00:02:36;;;;;;;15.03;13.13;;;4.30;99.90;;;;;;5092405;28;20518;-71
2020/12/06 00:05:06;;;;;;;22.23;16.20;;;4.40;99.90;;;;;;5093460;28;20914;-71
2020/12/06 00:07:32;;;;;;;19.50;14.47;;;4.40;99.90;;;;;;5093831;28;20166;-71
2020/12/06 00:09:57;;;;;;;18.60;14.60;;;4.40;99.90;;;;;;5094045;28;20518;-71
2020/12/06 00:12:23;;;;;;;21.63;14.20;;;4.40;99.90;;;;;;5093694;28;20184;-71
2020/12/06 00:14:48;;;;;;;19.10;14.30;;;4.40;99.90;;;;;;5093871;28;20728;-71
2020/12/06 00:17:14;;;;;;;20.93;14.77;;;4.40;99.90;;;;;;5093457;28;20174;-71
2020/12/06 00:19:39;;;;;;;18.27;13.80;;;4.40;99.90;;;;;;5093724;28;20189;-71
2020/12/06 00:22:05;;;;;;;18.20;15.10;;;4.50;99.90;;;;;;5093361;28;20211;-71
2020/12/06 00:24:31;;;;;;;21.10;13.87;;;4.50;99.90;;;;;;5094063;28;20630;-71
2020/12/06 00:26:57;;;;;;;17.97;12.87;;;4.50;99.90;;;;;;5094756;28;20234;-71
2020/12/06 00:29:23;;;;;;;18.70;14.07;;;4.50;99.90;;;;;;5093225;28;20211;-71
2020/12/06 00:31:48;;;;;;;16.03;12.57;;;4.50;99.90;;;;;;5092891;28;20419;-71
2020/12/06 00:34:14;;;;;;;20.50;13.03;;;4.50;99.90;;;;;;5093569;28;20566;-71
2020/12/06 00:36:40;;;;;;;19.83;13.60;;;4.50;99.90;;;;;;5093286;28;20173;-71
2020/12/06 00:39:05;;;;;;;22.30;13.07;;;4.50;99.90;;;;;;5092487;28;20423;-71
2020/12/06 00:41:31;;;;;;;19.03;14.10;;;4.60;99.90;;;;;;5094099;28;20180;-71
2020/12/06 00:43:56;;;;;;;20.80;14.07;;;4.60;99.90;;;;;;5094117;28;20283;-71
2020/12/06 00:46:23;;;;;;;17.20;13.67;;;4.60;99.90;;;;;;5092574;28;20182;-71
2020/12/06 00:48:49;;;;;;;21.77;14.23;;;4.60;99.90;;;;;;5092660;28;20614;-71
2020/12/06 00:51:15;;;;;;;19.60;14.50;;;4.50;99.90;;;;;;5093580;28;20425;-71
2020/12/06 00:53:43;;;;;;;20.80;14.37;;;4.50;99.90;;;;;;5091671;28;20204;-71
2020/12/06 00:56:16;;;;;;;18.50;14.27;;;4.50;99.90;;;;;;5093999;28;20778;-71
2020/12/06 00:58:43;;;;;;;22.37;14.10;;;4.50;99.90;;;;;;5093718;28;20488;-71
2020/12/06 01:01:08;;;;;;;19.07;14.20;;;4.50;99.90;;;;;;5093212;28;20411;-71
2020/12/06 01:03:34;;;;;;;18.60;15.10;;;4.50;99.90;;;;;;5093112;28;20510;-71
2020/12/06 01:05:59;;;;;;;18.87;14.23;;;4.50;99.90;;;;;;5092476;28;20252;-71
2020/12/06 01:08:25;;;;;;;22.87;16.17;;;4.40;99.90;;;;;;5093219;28;20222;-71
2020/12/06 01:10:51;;;;;;;22.10;14.60;;;4.40;99.90;;;;;;5092072;28;20227;-71
2020/12/06 01:13:16;;;;;;;19.93;13.40;;;4.40;99.90;;;;;;5092089;28;20271;-71
2020/12/06 01:15:42;;;;;;;23.50;15.80;;;4.40;99.90;;;;;;5091035;28;20220;-71
2020/12/06 01:18:07;;;;;;;19.50;14.30;;;4.50;99.90;;;;;;5090750;28;20180;-71
2020/12/06 01:20:33;;;;;;;20.67;15.00;;;4.40;99.90;;;;;;5090775;28;20295;-71
2020/12/06 01:22:58;;;;;;;17.67;13.30;;;4.40;99.90;;;;;;5090536;28;20201;-71
2020/12/06 01:25:24;;;;;;;25.37;16.80;;;4.40;99.90;;;;;;5090994;28;20172;-71
2020/12/06 01:27:49;;;;;;;21.50;15.33;;;4.40;99.90;;;;;;5090669;28;20173;-71
2020/12/06 01:30:15;;;;;;;21.90;15.20;;;4.40;99.90;;;;;;5088979;28;20191;-71
2020/12/06 01:32:41;;;;;;;22.63;14.37;;;4.40;99.90;;;;;;5089293;28;20260;-71
2020/12/06 01:35:06;;;;;;;18.17;14.03;;;4.40;99.90;;;;;;5089081;28;20173;-71
2020/12/06 01:37:32;;;;;;;22.30;15.00;;;4.40;99.90;;;;;;5083352;28;20184;-71
2020/12/06 01:39:58;;;;;;;16.83;13.60;;;4.40;99.90;;;;;;5089472;28;20193;-72
2020/12/06 01:42:23;;;;;;;19.60;15.43;;;4.40;99.90;;;;;;5089777;28;20252;-71
2020/12/06 01:44:56;;;;;;;16.93;14.10;;;4.40;99.90;;;;;;5091135;28;20193;-71
2020/12/06 01:47:22;;;;;;;22.57;16.00;;;4.40;99.90;;;;;;5090665;28;20176;-71
2020/12/06 01:49:48;;;;;;;21.53;15.07;;;4.30;99.90;;;;;;5090669;28;20580;-71
2020/12/06 01:52:14;;;;;;;19.90;14.23;;;4.30;99.90;;;;;;5087639;28;20888;-71
2020/12/06 01:54:40;;;;;;;19.33;14.30;;;4.30;99.90;;;;;;5089942;28;20226;-71
2020/12/06 01:57:05;;;;;;;21.20;13.20;;;4.30;99.90;;;;;;5089988;28;20838;-71
2020/12/06 01:59:31;;;;;;;20.60;14.47;;;4.40;99.90;;;;;;5090959;28;20458;-71
2020/12/06 02:02:00;;;;;;;20.80;15.50;;;4.30;99.90;;;;;;5091526;28;20185;-71
2020/12/06 02:04:28;;;;;;;22.37;15.30;;;4.30;99.90;;;;;;5092558;28;20438;-71
2020/12/06 02:06:57;;;;;;;21.67;15.07;;;4.30;99.90;;;;;;5093947;28;20965;-71
2020/12/06 02:09:24;;;;;;;21.90;16.80;;;4.40;99.90;;;;;;5094488;28;20466;-71
2020/12/06 02:11:50;;;;;;;20.90;14.77;;;4.30;99.90;;;;;;5094683;28;20438;-71
2020/12/06 02:14:16;;;;;;;21.33;15.23;;;4.40;99.90;;;;;;5095111;28;20536;-71
2020/12/06 02:16:43;;;;;;;20.37;15.03;;;4.40;99.90;;;;;;5094255;28;20427;-71
2020/12/06 02:19:10;;;;;;;17.53;13.07;;;4.40;99.90;;;;;;5094625;28;20474;-71
2020/12/06 02:21:41;;;;;;;18.87;14.13;;;4.30;99.90;;;;;;5093708;28;20950;-71
2020/12/06 02:24:10;;;;;;;18.17;13.50;;;4.40;99.90;;;;;;5090009;28;20495;-71
2020/12/06 02:26:44;;;;;;;16.47;13.33;;;4.40;99.90;;;;;;5093472;28;20517;-71
2020/12/06 02:29:10;;;;;;;18.20;14.00;;;4.40;99.90;;;;;;5094146;28;20966;-71
2020/12/06 02:31:37;;;;;;;18.83;13.27;;;4.40;99.90;;;;;;5096717;28;20832;-71
2020/12/06 02:34:03;;;;;;;17.63;14.10;;;4.40;99.90;;;;;;5094576;28;20447;-71
2020/12/06 02:36:29;;;;;;;18.07;12.83;;;4.30;99.90;;;;;;5091492;28;20430;-71
2020/12/06 02:38:55;;;;;;;20.73;13.97;;;4.30;99.90;;;;;;5092586;28;20452;-71
2020/12/06 02:41:20;;;;;;;19.50;14.67;;;4.30;99.90;;;;;;5094823;28;20173;-71
2020/12/06 02:43:46;;;;;;;21.43;15.37;;;4.40;99.90;;;;;;5094686;28;20181;-71
2020/12/06 02:46:12;;;;;;;22.00;14.13;;;4.40;99.90;;;;;;5092026;28;20284;-71
2020/12/06 02:48:37;;;;;;;19.00;13.83;;;4.30;99.90;;;;;;5093140;28;20652;-71
2020/12/06 02:51:04;;;;;;;21.37;15.03;;;4.40;99.90;;;;;;5094137;28;20591;-71
2020/12/06 02:53:30;;;;;;;18.50;14.33;;;4.40;99.90;;;;;;5093813;28;20200;-71
2020/12/06 02:55:55;;;;;;;21.53;14.50;;;4.40;99.90;;;;;;5094363;28;20510;-71
2020/12/06 02:58:21;;;;;;;21.20;13.90;;;4.40;99.90;;;;;;5094389;28;20427;-71
2020/12/06 03:00:47;;;;;;;18.73;14.53;;;4.30;99.90;;;;;;5093102;28;20246;-71
2020/12/06 03:03:12;;;;;;;19.53;14.37;;;4.40;99.90;;;;;;5079431;28;20208;-71
2020/12/06 03:05:38;;;;;;;19.73;13.83;;;4.40;99.90;;;;;;5091609;28;20184;-71
2020/12/06 03:08:03;;;;;;;18.87;13.87;;;4.40;99.90;;;;;;5095668;28;20191;-71
2020/12/06 03:10:29;;;;;;;19.90;13.70;;;4.40;99.90;;;;;;5078727;28;20276;-71
2020/12/06 03:12:55;;;;;;;20.40;14.07;;;4.40;99.90;;;;;;5093489;28;20287;-71
2020/12/06 03:15:20;;;;;;;21.10;13.90;;;4.50;99.90;;;;;;5094784;28;20177;-71
2020/12/06 03:17:46;;;;;;;20.93;15.47;;;4.50;99.90;;;;;;5095081;28;20578;-71
2020/12/06 03:20:11;;;;;;;21.50;15.50;;;4.50;99.90;;;;;;5092320;28;20192;-71
2020/12/06 03:22:37;;;;;;;17.90;13.10;;;4.50;99.90;;;;;;5094721;28;20227;-71
2020/12/06 03:25:03;;;;;;;20.47;15.00;;;4.50;99.90;;;;;;5093964;28;20185;-71
2020/12/06 03:27:29;;;;;;;20.67;14.60;;;4.40;99.90;;;;;;5094270;28;20263;-71
2020/12/06 03:29:57;;;;;;;23.00;14.63;;;4.50;99.90;;;;;;5093169;28;20550;-71
2020/12/06 03:32:23;;;;;;;22.60;15.73;;;4.50;99.90;;;;;;5094014;28;20177;-71
2020/12/06 03:34:50;;;;;;;17.77;13.97;;;4.50;99.90;;;;;;5094505;28;21024;-71
2020/12/06 03:37:15;;;;;;;19.00;14.77;;;4.50;99.90;;;;;;5094520;28;20866;-71
2020/12/06 03:39:41;;;;;;;17.00;13.47;;;4.50;99.90;;;;;;5094693;28;20475;-71
2020/12/06 03:42:07;;;;;;;25.10;14.83;;;4.60;99.90;;;;;;5093119;28;20177;-71
2020/12/06 03:44:33;;;;;;;23.40;14.90;;;4.60;99.90;;;;;;5094656;28;20441;-71
2020/12/06 03:46:59;;;;;;;20.63;13.67;;;4.60;99.90;;;;;;5094073;28;20773;-71
2020/12/06 03:49:24;;;;;;;17.80;13.50;;;4.70;99.90;;;;;;5093661;28;20299;-71
2020/12/06 03:51:50;;;;;;;19.03;14.47;;;4.70;99.90;;;;;;5093389;28;20181;-71
2020/12/06 03:54:16;;;;;;;20.63;14.80;;;4.70;99.90;;;;;;5093923;28;20577;-71
2020/12/06 03:56:41;;;;;;;22.57;13.60;;;4.70;99.90;;;;;;5094094;28;20273;-71
2020/12/06 03:59:07;;;;;;;20.47;14.97;;;4.70;99.90;;;;;;5093254;28;20196;-71
2020/12/06 04:01:32;;;;;;;23.20;15.23;;;4.70;99.90;;;;;;5093866;28;20665;-71
2020/12/06 04:03:58;;;;;;;21.03;13.87;;;4.70;99.90;;;;;;5093007;28;20185;-71
2020/12/06 04:06:23;;;;;;;19.13;13.93;;;4.70;99.90;;;;;;5092602;28;20173;-71
2020/12/06 04:08:49;;;;;;;21.30;15.60;;;4.70;99.90;;;;;;5092698;28;20201;-71
2020/12/06 04:11:15;;;;;;;20.17;14.83;;;4.70;99.90;;;;;;5092960;28;20669;-71
2020/12/06 04:13:40;;;;;;;21.13;13.10;;;4.70;99.90;;;;;;5093495;28;20288;-71
2020/12/06 04:16:06;;;;;;;19.27;13.93;;;4.80;99.90;;;;;;5093968;28;20263;-71
2020/12/06 04:18:31;;;;;;;19.03;13.53;;;4.80;99.90;;;;;;5092419;28;20223;-71
2020/12/06 04:20:57;;;;;;;15.53;12.67;;;4.80;99.90;;;;;;5093649;28;20174;-71
2020/12/06 04:23:22;;;;;;;20.90;14.87;;;4.80;99.90;;;;;;5093027;28;20269;-71
2020/12/06 04:25:48;;;;;;;20.47;14.37;;;4.80;99.90;;;;;;5092342;28;20626;-71
2020/12/06 04:28:14;;;;;;;17.40;12.80;;;4.80;99.90;;;;;;5092980;28;20184;-71
2020/12/06 04:30:40;;;;;;;14.93;11.90;;;4.80;99.90;;;;;;5091580;28;20611;-71
2020/12/06 04:33:05;;;;;;;21.30;14.00;;;4.70;99.90;;;;;;5091725;28;20219;-71
2020/12/06 04:35:31;;;;;;;21.60;14.30;;;4.60;99.90;;;;;;5092982;28;20935;-71
2020/12/06 04:37:56;;;;;;;22.20;14.90;;;4.60;99.90;;;;;;5093149;28;20177;-71
2020/12/06 04:40:22;;;;;;;19.97;13.67;;;4.50;99.90;;;;;;5093034;28;20203;-71
2020/12/06 04:42:48;;;;;;;20.40;15.57;;;4.40;99.90;;;;;;5091749;28;20536;-71
2020/12/06 04:45:14;;;;;;;21.33;15.27;;;4.50;99.90;;;;;;5093764;28;20412;-71
2020/12/06 04:47:52;;;;;;;19.80;14.57;;;4.60;99.90;;;;;;5092704;28;20454;-71
2020/12/06 04:50:50;;;;;;;18.23;13.60;;;4.60;99.90;;;;;;5091413;28;20204;-71
2020/12/06 04:53:17;;;;;;;19.83;14.50;;;4.60;99.90;;;;;;5084046;28;20471;-71
2020/12/06 04:55:46;;;;;;;19.37;13.67;;;4.70;99.90;;;;;;5093190;28;20446;-71
2020/12/06 04:58:23;;;;;;;19.53;14.07;;;4.70;99.90;;;;;;5092692;28;20471;-71
2020/12/06 05:00:50;;;;;;;19.17;14.17;;;4.80;99.90;;;;;;5091985;28;20891;-71
2020/12/06 05:03:21;;;;;;;19.30;13.67;;;4.80;99.90;;;;;;5092674;28;20530;-71
2020/12/06 05:05:48;;;;;;;18.37;13.50;;;4.80;99.90;;;;;;5090541;28;20431;-71
2020/12/06 05:08:14;;;;;;;18.33;13.97;;;4.90;99.90;;;;;;5086994;28;20573;-72
2020/12/06 05:10:48;;;;;;;15.83;12.10;;;4.80;99.90;;;;;;5093746;28;20952;-71
2020/12/06 05:13:15;;;;;;;21.40;14.57;;;4.80;99.90;;;;;;5091191;28;20201;-71
2020/12/06 05:15:41;;;;;;;20.87;13.60;;;4.90;99.90;;;;;;5091470;28;20439;-71
2020/12/06 05:18:06;;;;;;;20.57;13.60;;;4.90;99.90;;;;;;5091771;28;20427;-71
2020/12/06 05:20:33;;;;;;;18.07;13.70;;;5.00;99.90;;;;;;5091167;28;20204;-71
2020/12/06 05:22:59;;;;;;;21.00;14.13;;;5.00;99.90;;;;;;5092231;28;20188;-71
2020/12/06 05:25:25;;;;;;;23.60;13.30;;;5.00;99.90;;;;;;5094931;28;20454;-71
2020/12/06 05:27:50;;;;;;;21.07;15.63;;;4.90;99.90;;;;;;5092741;28;20234;-71
2020/12/06 05:30:17;;;;;;;21.00;14.03;;;5.00;99.90;;;;;;5090346;28;20250;-71
2020/12/06 05:32:42;;;;;;;17.23;13.00;;;5.00;99.90;;;;;;5093286;28;20174;-71
2020/12/06 05:35:10;;;;;;;16.90;13.37;;;5.00;99.90;;;;;;5091634;28;21001;-71
2020/12/06 05:37:37;;;;;;;15.33;12.40;;;5.10;99.90;;;;;;5092183;28;20187;-71
2020/12/06 05:40:10;;;;;;;17.03;13.23;;;5.10;99.90;;;;;;5092321;28;20462;-71
2020/12/06 05:42:42;;;;;;;22.00;13.93;;;5.10;99.90;;;;;;5091525;28;20438;-71
2020/12/06 05:45:10;;;;;;;24.17;14.03;;;5.20;99.90;;;;;;5082755;28;20492;-71
2020/12/06 05:47:36;;;;;;;16.13;12.53;;;5.20;99.90;;;;;;5087294;28;20799;-71
2020/12/06 05:50:02;;;;;;;16.80;12.63;;;5.20;99.90;;;;;;5092604;28;20440;-71
2020/12/06 05:52:29;;;;;;;17.33;12.57;;;5.20;99.90;;;;;;5091763;28;20442;-71
2020/12/06 05:54:58;;;;;;;14.43;11.80;;;5.20;99.90;;;;;;5093134;28;20462;-71
2020/12/06 05:57:29;;;;;;;18.03;13.30;;;5.20;99.90;;;;;;5091459;28;20428;-71
2020/12/06 05:59:56;;;;;;;15.27;12.03;;;5.30;99.90;;;;;;5091899;28;20458;-72
2020/12/06 06:02:23;;;;;;;17.03;12.60;;;5.30;99.90;;;;;;5089867;28;20439;-71
2020/12/06 06:04:50;;;;;;;19.97;11.90;;;5.30;99.90;;;;;;5091564;28;20940;-71
2020/12/06 06:07:21;;;;;;;17.77;12.60;;;5.30;99.90;;;;;;5093276;28;20514;-71
2020/12/06 06:10:05;;;;;;;19.03;12.87;;;5.30;99.90;;;;;;5089973;28;20504;-72
2020/12/06 06:12:37;;;;;;;18.80;12.83;;;5.20;99.90;;;;;;5088930;28;20450;-71
2020/12/06 06:15:04;;;;;;;14.53;11.40;;;5.30;99.90;;;;;;5092561;28;21094;-71
2020/12/06 06:17:31;;;;;;;17.20;12.17;;;5.30;99.90;;;;;;5092196;28;20529;-72
2020/12/06 06:19:58;;;;;;;13.70;11.17;;;5.30;99.90;;;;;;5091915;28;20993;-71
2020/12/06 06:22:28;;;;;;;18.90;11.93;;;5.20;99.90;;;;;;5092238;28;20427;-71
2020/12/06 06:24:56;;;;;;;16.10;12.57;;;5.30;99.90;;;;;;5092923;28;20510;-71
2020/12/06 06:27:21;;;;;;;17.40;11.80;;;5.40;99.90;;;;;;5092050;28;20519;-71
2020/12/06 06:29:49;;;;;;;19.00;12.40;;;5.40;99.90;;;;;;5091671;28;20546;-71
2020/12/06 06:32:15;;;;;;;15.83;11.60;;;5.40;99.90;;;;;;5090081;28;20199;-71
2020/12/06 06:34:42;;;;;;;17.13;12.50;;;5.40;99.90;;;;;;5092288;28;20553;-71
2020/12/06 06:37:16;;;;;;;15.43;12.40;;;5.40;99.90;;;;;;5092067;28;20646;-71
2020/12/06 06:39:43;;;;;;;17.87;12.73;;;5.40;99.90;;;;;;5090931;28;20461;-71
2020/12/06 06:42:13;;;;;;;21.70;13.60;;;5.40;99.90;;;;;;5091536;28;20439;-71
2020/12/06 06:44:40;;;;;;;18.73;12.90;;;5.40;99.90;;;;;;5092897;28;20432;-71
2020/12/06 06:47:08;;;;;;;19.83;13.20;;;5.50;99.90;;;;;;5093850;28;20936;-71
2020/12/06 06:49:58;;;;;;;19.50;12.50;;;5.50;99.90;;;;;;5096001;28;20458;-71
2020/12/06 06:52:26;;;;;;;18.80;13.20;;;5.50;99.90;;;;;;5088960;28;20568;-71
2020/12/06 06:54:54;;;;;;;16.90;12.50;;;5.50;99.90;;;;;;5095328;28;20463;-71
2020/12/06 06:57:21;;;;;;;18.93;12.40;;;5.50;99.90;;;;;;5094303;28;20423;-71
2020/12/06 06:59:52;;;;;;;15.60;11.40;;;5.50;99.90;;;;;;5095824;28;20496;-71
2020/12/06 07:02:35;;;;;;;17.10;12.00;;;5.40;99.90;;;;;;5095315;28;20936;-71
2020/12/06 07:05:22;;;;;;;19.23;13.40;;;5.40;99.90;;;;;;5096122;28;20451;-71
2020/12/06 07:07:49;;;;;;;17.53;12.80;;;5.40;99.90;;;;;;5093794;28;20443;-71
2020/12/06 07:10:27;;;;;;;20.00;13.17;;;5.40;99.90;;;;;;5094954;28;20455;-71
2020/12/06 07:12:58;;;;;;;16.87;12.47;;;5.40;99.90;;;;;;5089983;28;20463;-71
2020/12/06 07:15:25;;;;;;;16.07;12.03;;;5.40;99.90;;;;;;5091734;28;20435;-71
2020/12/06 07:17:52;;;;;;;17.00;12.13;;;5.40;99.90;;;;;;5093334;28;20438;-71
2020/12/06 07:20:18;;;;;;;16.93;12.97;;;5.30;99.90;;;;;;5093633;28;20488;-71
2020/12/06 07:22:46;;;;;;;17.40;12.83;;;5.30;99.90;;;;;;5097283;28;20550;-71
2020/12/06 07:25:13;;;;;;;18.83;12.97;;;5.30;99.90;;;;;;5096678;28;20415;-71
2020/12/06 07:27:39;;;;;;;15.63;12.07;;;5.30;99.90;;;;;;5093232;28;20443;-71
2020/12/06 07:30:07;;;;;;;20.30;12.67;;;5.30;99.90;;;;;;5093975;28;20801;-71
2020/12/06 07:32:33;;;;;;;17.10;12.43;;;5.30;99.90;;;;;;5093276;28;20439;-72
2020/12/06 07:34:59;;;;;;;19.00;13.30;;;5.30;99.90;;;;;;5094262;28;20462;-71
2020/12/06 07:37:24;;;;;;;17.57;12.90;;;5.30;99.90;;;;;;5093037;28;20975;-71
2020/12/06 07:39:50;;;;;;;21.23;14.40;;;5.30;99.90;;;;;;5094338;28;20274;-71
2020/12/06 07:42:27;;;;;;;18.07;12.97;;;5.30;99.90;;;;;;5094343;28;20264;-71
2020/12/06 07:44:55;;;;;;;16.20;12.90;;;5.30;99.90;;;;;;5094140;28;20442;-71
2020/12/06 07:47:21;;;;;;;18.87;14.60;;;5.30;99.90;;;;;;5093427;28;20434;-71
2020/12/06 07:49:49;;;;;;;18.90;12.50;;;5.30;99.90;;;;;;5094410;28;20463;-71
2020/12/06 07:52:18;;;;;;;17.80;13.60;;;5.30;99.90;;;;;;5092752;28;20488;-71
2020/12/06 07:54:54;;;;;;;22.10;15.00;;;5.20;99.90;;;;;;5093530;28;20470;-71
2020/12/06 07:57:44;;;;;;;17.60;13.00;;;5.30;99.90;;;;;;5093120;28;20513;-71
2020/12/06 08:00:18;;;;;;;19.00;13.90;;;5.30;99.90;;;;;;5091233;28;20443;-71
2020/12/06 08:02:47;;;;;;;18.10;13.43;;;5.40;99.90;;;;;;5093701;28;20423;-71
2020/12/06 08:05:21;;;;;;;18.97;14.47;;;5.30;99.90;;;;;;5094023;28;20438;-71
2020/12/06 08:07:54;;;;;;;18.50;13.07;;;5.20;99.90;;;;;;5094555;28;20428;-71
2020/12/06 08:10:21;;;;;;;18.63;13.07;;;5.20;99.90;;;;;;5094660;28;20448;-71
2020/12/06 08:12:50;;;;;;;19.73;15.00;;;5.20;99.90;;;;;;5093505;28;20423;-71
2020/12/06 08:15:16;;;;;;;28.50;17.80;;;5.30;99.90;;;;;;5080825;28;20769;-71
2020/12/06 08:17:47;;;;;;;32.07;20.37;;;5.30;99.90;;;;;;5083036;28;20415;-71
2020/12/06 08:20:14;;;;;;;34.37;22.27;;;5.30;99.90;;;;;;5092708;28;20185;-71
2020/12/06 08:22:59;;;;;;;27.53;19.00;;;5.40;99.90;;;;;;5092716;28;20518;-71
2020/12/06 08:25:30;;;;;;;21.43;16.20;;;5.40;99.90;;;;;;5092340;28;20423;-71
2020/12/06 08:27:58;;;;;;;18.50;12.40;;;5.50;99.90;;;;;;5091487;28;20798;-71
2020/12/06 08:30:27;;;;;;;24.83;14.27;;;5.50;99.90;;;;;;5093216;28;20431;-71
2020/12/06 08:33:03;;;;;;;17.93;12.83;;;5.50;99.90;;;;;;5092816;28;20423;-71
2020/12/06 08:35:51;;;;;;;18.87;12.10;;;5.50;99.90;;;;;;5092179;28;20829;-71
2020/12/06 08:38:21;;;;;;;19.80;14.47;;;5.60;99.90;;;;;;5092510;28;20433;-71
2020/12/06 08:41:12;;;;;;;18.60;13.30;;;5.60;99.90;;;;;;5093670;28;20419;-71
2020/12/06 08:43:46;;;;;;;20.33;14.23;;;5.60;99.90;;;;;;5086570;28;20985;-71
2020/12/06 08:46:14;;;;;;;19.60;14.70;;;5.60;99.90;;;;;;5091912;28;20785;-71
2020/12/06 08:48:40;;;;;;;30.60;20.70;;;5.70;99.90;;;;;;5091145;28;20489;-71
2020/12/06 08:51:06;;;;;;;20.47;13.93;;;5.70;99.90;;;;;;5088223;28;20427;-71
2020/12/06 08:53:45;;;;;;;19.97;16.07;;;5.80;99.90;;;;;;5085778;28;20459;-71
2020/12/06 08:56:32;;;;;;;16.70;13.57;;;5.80;99.90;;;;;;5091839;28;20234;-71
2020/12/06 08:59:16;;;;;;;17.10;13.30;;;5.90;99.90;;;;;;5091295;28;20478;-71
2020/12/06 09:01:50;;;;;;;18.83;13.40;;;6.00;99.90;;;;;;5093178;28;20851;-71
2020/12/06 09:04:17;;;;;;;21.23;15.30;;;6.00;99.90;;;;;;5093300;28;20427;-71
2020/12/06 09:06:43;;;;;;;17.47;13.77;;;6.20;99.90;;;;;;5091262;28;20458;-71
2020/12/06 09:09:09;;;;;;;19.77;13.57;;;6.20;99.90;;;;;;5090520;28;20458;-71
2020/12/06 09:11:35;;;;;;;20.03;13.80;;;6.30;99.90;;;;;;5092048;28;20858;-72
2020/12/06 09:14:01;;;;;;;19.67;13.70;;;6.40;99.90;;;;;;5093221;28;20193;-71
2020/12/06 09:16:26;;;;;;;20.40;12.93;;;6.50;99.90;;;;;;5092558;28;20959;-71
2020/12/06 09:18:52;;;;;;;18.13;12.63;;;6.50;99.90;;;;;;5093275;28;20196;-71
2020/12/06 09:21:18;;;;;;;21.17;12.40;;;6.60;99.90;;;;;;5085098;28;20173;-71
2020/12/06 09:23:45;;;;;;;15.93;12.90;;;6.70;99.90;;;;;;5090673;28;20177;-71
2020/12/06 09:26:11;;;;;;;15.10;12.43;;;6.70;99.90;;;;;;5090511;28;20170;-71
2020/12/06 09:28:36;;;;;;;17.83;13.80;;;6.80;99.90;;;;;;5090760;28;20836;-71
2020/12/06 09:31:02;;;;;;;15.87;12.60;;;6.80;99.90;;;;;;5092202;28;20177;-71
2020/12/06 09:33:29;;;;;;;14.50;11.70;;;6.90;99.90;;;;;;5090120;28;20242;-71
2020/12/06 09:35:54;;;;;;;18.13;12.80;;;7.00;99.90;;;;;;5080506;28;20909;-71
2020/12/06 09:38:21;;;;;;;16.37;13.87;;;7.00;99.90;;;;;;5088304;28;20423;-71
2020/12/06 09:40:46;;;;;;;15.17;11.93;;;7.10;99.90;;;;;;5092427;28;20173;-71
2020/12/06 09:43:12;;;;;;;16.10;12.27;;;7.10;99.90;;;;;;5092094;28;20437;-71
2020/12/06 09:45:40;;;;;;;18.10;13.20;;;7.20;99.90;;;;;;5091071;28;20208;-71
2020/12/06 09:48:06;;;;;;;18.67;13.70;;;7.20;99.90;;;;;;5091299;28;20197;-71
2020/12/06 09:50:31;;;;;;;14.37;11.63;;;7.30;99.90;;;;;;5091023;28;21029;-71
2020/12/06 09:52:57;;;;;;;16.87;13.47;;;7.40;99.90;;;;;;5090936;28;20177;-71
2020/12/06 09:55:23;;;;;;;14.90;10.97;;;7.50;99.90;;;;;;5088084;28;20185;-71
2020/12/06 09:57:49;;;;;;;17.27;12.10;;;7.50;99.90;;;;;;5090431;28;20428;-71
2020/12/06 10:00:15;;;;;;;15.83;11.70;;;7.60;99.90;;;;;;5091240;28;20454;-71
2020/12/06 10:02:40;;;;;;;14.37;11.43;;;7.60;99.90;;;;;;5092361;28;20173;-71
2020/12/06 10:05:06;;;;;;;15.97;12.00;;;7.60;99.90;;;;;;5091707;28;20182;-71
2020/12/06 10:07:32;;;;;;;16.00;12.60;;;7.60;99.90;;;;;;5090603;28;20187;-71
2020/12/06 10:09:57;;;;;;;14.37;11.13;;;7.50;99.90;;;;;;5091500;28;20322;-71
2020/12/06 10:12:23;;;;;;;15.60;12.00;;;7.50;99.90;;;;;;5091310;28;20193;-71
2020/12/06 10:14:49;;;;;;;14.57;10.40;;;7.60;99.90;;;;;;5091509;28;20201;-71
2020/12/06 10:17:14;;;;;;;20.03;13.83;;;7.70;99.90;;;;;;5089714;28;20184;-71
2020/12/06 10:19:40;;;;;;;15.27;11.80;;;7.80;99.90;;;;;;5090748;28;20208;-71
2020/12/06 10:22:06;;;;;;;18.30;12.63;;;7.90;99.90;;;;;;5093499;28;20204;-71
2020/12/06 10:24:31;;;;;;;17.17;13.07;;;7.90;99.90;;;;;;5090567;28;20189;-71
2020/12/06 10:26:57;;;;;;;14.50;11.63;;;7.90;99.90;;;;;;5093478;28;20557;-71
2020/12/06 10:29:23;;;;;;;13.67;10.53;;;8.00;99.90;;;;;;5094821;28;20208;-71
2020/12/06 10:31:50;;;;;;;16.03;11.03;;;8.10;99.90;;;;;;5095447;28;20188;-71
2020/12/06 10:34:16;;;;;;;13.03;11.20;;;8.00;99.90;;;;;;5094511;28;20501;-71
2020/12/06 10:36:42;;;;;;;14.60;12.47;;;8.10;99.90;;;;;;5096360;28;20459;-71
2020/12/06 10:39:07;;;;;;;16.40;12.07;;;8.00;99.90;;;;;;5094398;28;20447;-71
2020/12/06 10:41:33;;;;;;;17.20;13.27;;;7.90;99.90;;;;;;5094970;28;20553;-72
2020/12/06 10:43:58;;;;;;;15.97;11.57;;;8.00;99.90;;;;;;5094563;28;20181;-71
2020/12/06 10:46:27;;;;;;;14.40;12.10;;;7.90;99.90;;;;;;5095048;28;20254;-71
2020/12/06 10:48:53;;;;;;;12.17;10.07;;;7.90;99.90;;;;;;5094909;28;20216;-71
2020/12/06 10:51:19;;;;;;;17.43;11.57;;;7.80;99.90;;;;;;5093662;28;20446;-71
2020/12/06 10:53:45;;;;;;;15.03;11.67;;;7.80;99.90;;;;;;5090722;28;20816;-71
2020/12/06 10:56:10;;;;;;;14.87;10.80;;;7.70;99.90;;;;;;5093745;28;20424;-71
2020/12/06 10:58:36;;;;;;;13.83;11.83;;;7.60;99.90;;;;;;5092400;28;20197;-71
2020/12/06 11:01:02;;;;;;;11.83;10.30;;;7.70;99.90;;;;;;5095394;28;20173;-71
2020/12/06 11:03:27;;;;;;;12.47;9.87;;;7.70;99.90;;;;;;5094505;28;20227;-71
2020/12/06 11:05:53;;;;;;;11.00;9.47;;;7.70;99.90;;;;;;5094428;28;20173;-71
2020/12/06 11:08:19;;;;;;;10.77;9.53;;;7.70;99.90;;;;;;5093685;28;20605;-72
2020/12/06 11:10:45;;;;;;;16.43;10.60;;;7.80;99.90;;;;;;5091058;28;20192;-70
2020/12/06 11:13:11;;;;;;;12.90;10.57;;;7.80;99.90;;;;;;5092090;28;20185;-73
2020/12/06 11:15:37;;;;;;;12.50;10.70;;;7.90;99.90;;;;;;5092901;28;20476;-72
2020/12/06 11:18:02;;;;;;;13.00;10.90;;;7.80;99.90;;;;;;5091800;28;20180;-73
2020/12/06 11:20:28;;;;;;;13.83;11.23;;;7.80;99.90;;;;;;5092247;28;20604;-70
2020/12/06 11:22:54;;;;;;;14.37;11.47;;;7.80;99.90;;;;;;5092414;28;20248;-74
2020/12/06 11:25:19;;;;;;;11.90;10.20;;;7.60;99.90;;;;;;5089259;28;20268;-70
2020/12/06 11:27:45;;;;;;;12.37;9.87;;;7.70;99.90;;;;;;5088409;28;20252;-75
2020/12/06 11:30:10;;;;;;;14.73;10.73;;;7.70;99.90;;;;;;5089482;28;20208;-76
2020/12/06 11:32:36;;;;;;;13.33;11.93;;;7.70;99.90;;;;;;5091586;28;20252;-71
2020/12/06 11:35:02;;;;;;;15.27;11.07;;;7.70;99.90;;;;;;5088960;28;20231;-72
2020/12/06 11:37:27;;;;;;;12.73;10.10;;;7.50;99.90;;;;;;5091891;28;20161;-72
2020/12/06 11:39:53;;;;;;;13.17;11.07;;;7.60;99.90;;;;;;5092303;28;20235;-72
2020/12/06 11:42:19;;;;;;;15.20;11.90;;;7.50;99.90;;;;;;5092735;28;20178;-72
2020/12/06 11:44:44;;;;;;;13.30;11.90;;;7.40;99.90;;;;;;5092457;28;20538;-72
2020/12/06 11:47:10;;;;;;;15.07;12.17;;;7.40;99.90;;;;;;5092536;28;20195;-72
2020/12/06 11:49:36;;;;;;;15.13;10.97;;;7.30;99.90;;;;;;5100794;28;20699;-70
2020/12/06 11:52:02;;;;;;;15.10;11.50;;;7.20;99.90;;;;;;5094475;28;20536;-69
2020/12/06 11:54:28;;;;;;;14.27;11.60;;;7.20;99.90;;;;;;5091710;28;20443;-74
2020/12/06 11:56:53;;;;;;;14.37;11.70;;;7.10;99.90;;;;;;5093390;28;20431;-73
2020/12/06 11:59:19;;;;;;;17.73;12.00;;;7.10;99.90;;;;;;5092442;28;20190;-73
2020/12/06 12:01:45;;;;;;;16.13;11.63;;;7.00;99.90;;;;;;5092188;28;20184;-75
2020/12/06 12:04:11;;;;;;;16.70;11.50;;;7.00;99.90;;;;;;5092396;28;20161;-73
2020/12/06 12:06:36;;;;;;;16.17;12.20;;;7.00;99.90;;;;;;5090749;28;20212;-74
2020/12/06 12:09:03;;;;;;;17.70;13.57;;;6.90;99.90;;;;;;5092329;28;20478;-69
2020/12/06 12:11:29;;;;;;;14.70;11.93;;;7.00;99.90;;;;;;5092368;28;20642;-68
2020/12/06 12:13:54;;;;;;;16.90;13.40;;;6.90;99.90;;;;;;5091953;28;20538;-68
2020/12/06 12:16:20;;;;;;;19.43;14.13;;;6.90;99.90;;;;;;5092188;28;20534;-69
2020/12/06 12:18:45;;;;;;;16.37;13.90;;;6.80;99.90;;;;;;5091762;28;20190;-69
2020/12/06 12:21:11;;;;;;;16.27;13.43;;;6.80;99.90;;;;;;5092064;28;20266;-68
2020/12/06 12:23:37;;;;;;;16.03;12.57;;;6.80;99.90;;;;;;5091977;28;20173;-69
2020/12/06 12:26:02;;;;;;;17.33;13.07;;;6.80;99.90;;;;;;5091497;28;20536;-67
2020/12/06 12:28:28;;;;;;;17.97;12.67;;;6.80;99.90;;;;;;5091836;28;20677;-70
2020/12/06 12:30:55;;;;;;;19.67;12.40;;;6.80;99.90;;;;;;5091594;28;20173;-69
2020/12/06 12:33:20;;;;;;;15.40;12.60;;;6.80;99.90;;;;;;5092000;28;20193;-72
2020/12/06 12:35:46;;;;;;;16.50;13.50;;;6.80;99.90;;;;;;5091709;28;20789;-71
2020/12/06 12:38:12;;;;;;;19.60;13.00;;;6.80;99.90;;;;;;5091653;28;20819;-72